Time;durP1;ratioP1;P1;durP2;ratioP2;P2;SDS_P1;SDS_P2;PMS_P1;PMS_P2;Temp;Humidity;BMP_temperature;BMP_pressure;BME280_temperature;BME280_humidity;BME280_pressure;Samples;Min_cycle;Max_cycle;Signal;HPM_P1;HPM_P2
2021/06/15 00:02:17;;;;;;;2.58;1.58;;;13.00;99.90;;;;;;5048834;28;20083;-72
2021/06/15 00:04:42;;;;;;;2.22;1.38;;;12.90;99.90;;;;;;5053298;28;20453;-72
2021/06/15 00:07:08;;;;;;;4.13;1.30;;;13.00;99.90;;;;;;5053450;28;20073;-72
2021/06/15 00:09:33;;;;;;;2.65;1.40;;;13.00;99.90;;;;;;5048457;28;20077;-72
2021/06/15 00:11:59;;;;;;;3.58;1.50;;;12.90;99.90;;;;;;5060198;28;20081;-73
2021/06/15 00:14:25;;;;;;;2.13;1.30;;;12.80;99.90;;;;;;5052434;28;20724;-72
2021/06/15 00:16:51;;;;;;;3.13;1.63;;;12.70;99.90;;;;;;5047641;28;20088;-72
2021/06/15 00:19:16;;;;;;;3.35;1.30;;;12.70;99.90;;;;;;5047322;28;20126;-73
2021/06/15 00:21:42;;;;;;;3.25;1.48;;;12.70;99.90;;;;;;5048947;28;20204;-72
2021/06/15 00:24:07;;;;;;;3.53;1.33;;;12.70;99.90;;;;;;5050044;28;20093;-72
2021/06/15 00:26:33;;;;;;;2.05;1.35;;;12.60;99.90;;;;;;5048494;28;20065;-72
2021/06/15 00:28:59;;;;;;;3.33;1.67;;;12.60;99.90;;;;;;5049421;28;20077;-72
2021/06/15 00:31:26;;;;;;;2.85;1.48;;;12.70;99.90;;;;;;5048482;28;20869;-72
2021/06/15 00:33:52;;;;;;;2.95;1.20;;;12.60;99.90;;;;;;5050326;28;20107;-72
2021/06/15 00:36:17;;;;;;;2.20;1.40;;;12.50;99.90;;;;;;5050702;28;20119;-72
2021/06/15 00:38:43;;;;;;;2.33;1.40;;;12.50;99.90;;;;;;5052878;28;20109;-72
2021/06/15 00:41:09;;;;;;;3.33;1.80;;;12.40;99.90;;;;;;5048217;28;20180;-72
2021/06/15 00:43:34;;;;;;;2.28;1.63;;;12.40;99.90;;;;;;5057196;28;20081;-72
2021/06/15 00:46:00;;;;;;;2.50;1.48;;;12.40;99.90;;;;;;5049146;28;20520;-72
2021/06/15 00:48:35;;;;;;;2.05;1.75;;;12.30;99.90;;;;;;5051860;28;20080;-72
2021/06/15 00:51:02;;;;;;;2.47;1.30;;;12.30;99.90;;;;;;5053095;28;20580;-72
2021/06/15 00:53:29;;;;;;;2.78;1.52;;;12.30;99.90;;;;;;5051728;28;20324;-72
2021/06/15 00:55:55;;;;;;;2.22;1.58;;;12.30;99.90;;;;;;5056256;28;20089;-72
2021/06/15 00:58:22;;;;;;;2.65;1.48;;;12.40;99.90;;;;;;5053091;28;20203;-72
2021/06/15 01:00:48;;;;;;;2.97;1.75;;;12.40;99.90;;;;;;5065035;28;20074;-72
2021/06/15 01:03:16;;;;;;;2.47;1.50;;;12.30;99.90;;;;;;5064145;28;20109;-72
2021/06/15 01:05:41;;;;;;;3.65;1.77;;;12.20;99.90;;;;;;5050816;28;20101;-72
2021/06/15 01:08:13;;;;;;;1.45;1.25;;;12.20;99.90;;;;;;5053308;28;20492;-72
2021/06/15 01:10:45;;;;;;;4.30;1.58;;;12.20;99.90;;;;;;5051200;28;20070;-72
2021/06/15 01:13:31;;;;;;;3.22;1.50;;;12.20;99.90;;;;;;5056081;28;20078;-72
2021/06/15 01:16:04;;;;;;;12.18;2.10;;;12.10;99.90;;;;;;5051234;28;20092;-72
2021/06/15 01:18:33;;;;;;;1.77;1.52;;;12.10;99.90;;;;;;5056493;28;20171;-74
2021/06/15 01:21:07;;;;;;;2.40;1.75;;;12.20;99.90;;;;;;5054010;28;20101;-71
2021/06/15 01:23:39;;;;;;;;;;;12.20;99.90;;;;;;5052082;28;20100;-72
2021/06/15 01:26:26;;;;;;;4.72;1.80;;;12.10;99.90;;;;;;5057848;28;20821;-72
2021/06/15 01:29:04;;;;;;;1.80;1.50;;;12.00;99.90;;;;;;5051201;28;20109;-72
2021/06/15 01:31:45;;;;;;;2.53;1.55;;;11.90;99.90;;;;;;5053193;28;20099;-72
2021/06/15 01:34:25;;;;;;;2.35;1.42;;;11.80;99.90;;;;;;5052638;28;20171;-72
2021/06/15 01:37:08;;;;;;;2.05;1.38;;;11.80;99.90;;;;;;5050866;28;20073;-72
2021/06/15 01:39:41;;;;;;;1.75;1.23;;;11.90;99.90;;;;;;5050502;28;20081;-72
2021/06/15 01:42:26;;;;;;;2.20;1.90;;;11.90;99.90;;;;;;5046366;28;20101;-71
2021/06/15 01:45:18;;;;;;;4.13;1.55;;;11.90;99.90;;;;;;5051514;28;20196;-72
2021/06/15 01:47:54;;;;;;;2.25;1.50;;;12.00;99.90;;;;;;5045183;28;20094;-72
2021/06/15 01:50:22;;;;;;;3.58;1.92;;;11.90;99.90;;;;;;5053627;28;20073;-72
2021/06/15 01:52:50;;;;;;;1.33;1.20;;;11.80;99.90;;;;;;5048310;28;20070;-72
2021/06/15 01:55:18;;;;;;;1.80;1.45;;;11.70;99.90;;;;;;5055251;28;20093;-72
2021/06/15 01:57:44;;;;;;;2.17;1.63;;;11.70;99.90;;;;;;5051740;28;20160;-73
2021/06/15 02:00:12;;;;;;;3.25;1.67;;;11.70;99.90;;;;;;5051184;28;20081;-72
2021/06/15 02:02:39;;;;;;;3.05;1.60;;;11.80;99.90;;;;;;5050177;28;20085;-72
2021/06/15 02:05:08;;;;;;;3.10;1.70;;;11.80;99.90;;;;;;5050260;28;20746;-72
2021/06/15 02:07:39;;;;;;;3.08;1.63;;;11.70;99.90;;;;;;5049949;28;20084;-72
2021/06/15 02:10:10;;;;;;;3.45;1.75;;;11.60;99.90;;;;;;5050537;28;20678;-72
2021/06/15 02:12:40;;;;;;;1.90;1.40;;;11.70;99.90;;;;;;5050742;28;20066;-72
2021/06/15 02:15:13;;;;;;;2.95;1.65;;;11.60;99.90;;;;;;5050455;28;20093;-72
2021/06/15 02:17:45;;;;;;;4.38;2.17;;;11.50;99.90;;;;;;5049715;28;20600;-72
2021/06/15 02:20:13;;;;;;;2.10;1.42;;;11.50;99.90;;;;;;5050108;28;20077;-72
2021/06/15 02:22:44;;;;;;;2.38;1.52;;;11.60;99.90;;;;;;5050583;28;20100;-72
2021/06/15 02:25:10;;;;;;;2.58;1.50;;;11.50;99.90;;;;;;5056109;28;20172;-72
2021/06/15 02:27:36;;;;;;;2.10;1.70;;;11.50;99.90;;;;;;5053405;28;20081;-72
2021/06/15 02:30:05;;;;;;;1.92;1.58;;;11.40;99.90;;;;;;5055328;28;20134;-72
2021/06/15 02:32:33;;;;;;;2.35;1.50;;;11.40;99.90;;;;;;5054464;28;20131;-73
2021/06/15 02:35:02;;;;;;;4.10;1.80;;;11.50;99.90;;;;;;5057629;28;20143;-72
2021/06/15 02:37:35;;;;;;;1.88;1.45;;;11.40;99.90;;;;;;5049932;28;20077;-72
2021/06/15 02:40:04;;;;;;;3.55;2.13;;;11.30;99.90;;;;;;5064295;28;20206;-73
2021/06/15 02:42:32;;;;;;;2.40;1.30;;;11.30;99.90;;;;;;5052888;28;20516;-72
2021/06/15 02:44:59;;;;;;;1.75;1.45;;;11.10;99.90;;;;;;5050352;28;20172;-72
2021/06/15 02:47:27;;;;;;;3.10;1.65;;;11.10;99.90;;;;;;5048719;28;20152;-72
2021/06/15 02:49:58;;;;;;;2.55;1.85;;;11.10;99.90;;;;;;5049523;28;20144;-72
2021/06/15 02:52:44;;;;;;;2.83;1.67;;;11.10;99.90;;;;;;5051057;28;20088;-72
2021/06/15 02:55:25;;;;;;;1.70;1.60;;;11.00;99.90;;;;;;5049498;28;20545;-72
2021/06/15 02:57:51;;;;;;;3.15;2.03;;;10.90;99.90;;;;;;5050348;28;20077;-72
2021/06/15 03:00:18;;;;;;;1.90;1.60;;;10.80;99.90;;;;;;5074627;28;20087;-73
2021/06/15 03:02:44;;;;;;;2.63;1.73;;;10.90;99.90;;;;;;5053489;28;20074;-72
2021/06/15 03:05:14;;;;;;;4.18;1.65;;;11.00;99.90;;;;;;5062763;28;20476;-72
2021/06/15 03:07:41;;;;;;;2.30;1.67;;;11.20;99.90;;;;;;5066260;28;20081;-72
2021/06/15 03:10:09;;;;;;;2.33;1.52;;;11.30;99.90;;;;;;5057829;28;20083;-72
2021/06/15 03:12:43;;;;;;;2.30;1.60;;;11.30;99.90;;;;;;5050243;28;20489;-72
2021/06/15 03:15:13;;;;;;;1.70;1.60;;;11.10;99.90;;;;;;5049654;28;20097;-72
2021/06/15 03:17:49;;;;;;;2.42;1.60;;;11.00;99.90;;;;;;5049915;28;20104;-72
2021/06/15 03:20:16;;;;;;;2.63;1.55;;;11.00;99.90;;;;;;5050071;28;20123;-71
2021/06/15 03:22:54;;;;;;;5.32;1.90;;;10.90;99.90;;;;;;5054193;28;20089;-72
2021/06/15 03:25:25;;;;;;;2.28;1.60;;;10.90;99.90;;;;;;5054984;28;20089;-71
2021/06/15 03:28:04;;;;;;;3.05;2.03;;;10.90;99.90;;;;;;5052324;28;20066;-72
2021/06/15 03:30:31;;;;;;;1.73;1.40;;;10.90;99.90;;;;;;5049003;28;20093;-72
2021/06/15 03:32:59;;;;;;;5.10;1.88;;;10.90;99.90;;;;;;5048509;28;20082;-72
2021/06/15 03:35:27;;;;;;;2.67;1.70;;;10.90;99.90;;;;;;5048296;28;20230;-72
2021/06/15 03:38:03;;;;;;;3.55;1.60;;;11.10;99.90;;;;;;5049494;28;20104;-71
2021/06/15 03:40:30;;;;;;;2.90;1.55;;;11.00;99.90;;;;;;5048727;28;20163;-72
2021/06/15 03:42:58;;;;;;;2.28;1.77;;;11.00;99.90;;;;;;5049462;28;20078;-72
2021/06/15 03:45:30;;;;;;;3.05;1.92;;;11.00;99.90;;;;;;5048400;28;20100;-72
2021/06/15 03:47:58;;;;;;;3.78;1.70;;;11.10;99.90;;;;;;5048748;28;20077;-72
2021/06/15 03:50:24;;;;;;;3.50;2.00;;;11.00;99.90;;;;;;5048861;28;20069;-72
2021/06/15 03:52:56;;;;;;;2.30;1.83;;;11.10;99.90;;;;;;5049127;28;20069;-72
2021/06/15 03:55:25;;;;;;;5.18;2.35;;;11.20;99.90;;;;;;5049035;28;20093;-72
2021/06/15 03:57:52;;;;;;;3.80;1.92;;;11.40;99.90;;;;;;5050015;28;20080;-72
2021/06/15 04:00:20;;;;;;;2.65;1.67;;;11.40;99.90;;;;;;5051956;28;20084;-71
2021/06/15 04:02:49;;;;;;;2.28;1.63;;;11.40;99.90;;;;;;5050227;28;20081;-72
2021/06/15 04:05:17;;;;;;;3.65;1.65;;;11.60;99.90;;;;;;5061620;28;20107;-72
2021/06/15 04:07:45;;;;;;;3.33;1.83;;;11.50;99.90;;;;;;5060435;28;20085;-72
2021/06/15 04:10:13;;;;;;;3.60;1.92;;;11.60;99.90;;;;;;5066274;28;20509;-72
2021/06/15 04:12:39;;;;;;;3.75;2.13;;;11.70;99.90;;;;;;5049600;28;20144;-72
2021/06/15 04:15:08;;;;;;;4.18;1.92;;;11.90;99.90;;;;;;5048931;28;20092;-72
2021/06/15 04:17:37;;;;;;;2.50;1.60;;;12.00;99.90;;;;;;5049916;28;20088;-72
2021/06/15 04:20:04;;;;;;;3.58;1.95;;;12.10;99.90;;;;;;5066320;28;20077;-72
2021/06/15 04:22:44;;;;;;;3.72;1.50;;;12.10;99.90;;;;;;5056827;28;20078;-72
2021/06/15 04:25:11;;;;;;;3.55;1.60;;;12.10;99.90;;;;;;5063545;28;20107;-72
2021/06/15 04:27:37;;;;;;;4.00;1.67;;;12.00;99.90;;;;;;5069366;28;20134;-72
2021/06/15 04:30:08;;;;;;;1.85;1.50;;;12.00;99.90;;;;;;5060899;28;20101;-72
2021/06/15 04:32:45;;;;;;;2.60;1.90;;;12.10;99.90;;;;;;5057463;28;20967;-72
2021/06/15 04:35:12;;;;;;;3.03;1.80;;;12.30;99.90;;;;;;5054357;28;20206;-72
2021/06/15 04:37:38;;;;;;;2.92;1.80;;;12.50;99.90;;;;;;5058720;28;20073;-72
2021/06/15 04:40:13;;;;;;;1.63;1.52;;;12.40;99.90;;;;;;5064648;28;20081;-72
2021/06/15 04:42:52;;;;;;;5.00;2.03;;;12.30;99.90;;;;;;5054811;28;20076;-72
2021/06/15 04:45:28;;;;;;;2.45;1.83;;;12.40;99.90;;;;;;5050865;28;20105;-72
2021/06/15 04:48:21;;;;;;;2.20;1.90;;;12.50;99.90;;;;;;5072860;28;20203;-72
2021/06/15 04:50:48;;;;;;;3.55;2.17;;;12.50;99.90;;;;;;5052107;28;20070;-72
2021/06/15 04:53:16;;;;;;;5.35;1.85;;;12.50;99.90;;;;;;5052119;28;20116;-73
2021/06/15 04:55:42;;;;;;;2.75;1.73;;;12.60;99.90;;;;;;5066451;28;20104;-73
2021/06/15 04:58:10;;;;;;;3.33;2.00;;;12.70;99.90;;;;;;5061055;28;20187;-73
2021/06/15 05:00:37;;;;;;;3.92;2.33;;;13.00;99.90;;;;;;5057073;28;20146;-73
2021/06/15 05:03:06;;;;;;;4.97;2.30;;;13.30;99.90;;;;;;5061374;28;20085;-73
2021/06/15 05:05:32;;;;;;;6.38;2.58;;;13.30;99.90;;;;;;5061847;28;20568;-72
2021/06/15 05:08:04;;;;;;;6.72;2.58;;;13.20;99.90;;;;;;5054969;28;20160;-72
2021/06/15 05:10:32;;;;;;;5.63;2.20;;;13.30;99.90;;;;;;5063111;28;20072;-72
2021/06/15 05:12:59;;;;;;;2.88;1.92;;;13.30;99.90;;;;;;5062726;28;20074;-72
2021/06/15 05:15:27;;;;;;;5.25;2.30;;;13.40;99.90;;;;;;5057792;28;20452;-72
2021/06/15 05:17:55;;;;;;;3.60;2.25;;;13.40;99.90;;;;;;5054051;28;20148;-72
2021/06/15 05:20:22;;;;;;;4.10;2.30;;;13.50;99.90;;;;;;5065843;28;20115;-71
2021/06/15 05:23:24;;;;;;;3.30;1.80;;;13.80;99.90;;;;;;5055258;28;20635;-71
2021/06/15 05:25:50;;;;;;;3.28;2.65;;;14.10;99.90;;;;;;5058579;28;20108;-71
2021/06/15 05:28:17;;;;;;;6.95;2.25;;;14.20;99.90;;;;;;5051818;28;20061;-72
2021/06/15 05:30:43;;;;;;;5.13;1.60;;;14.30;99.90;;;;;;5051161;28;20093;-72
2021/06/15 05:33:10;;;;;;;4.32;2.28;;;14.40;99.90;;;;;;5059638;28;20553;-73
2021/06/15 05:35:36;;;;;;;6.78;3.03;;;14.50;99.90;;;;;;5050472;28;20197;-73
2021/06/15 05:38:01;;;;;;;16.75;3.13;;;14.50;99.90;;;;;;5051193;28;20161;-73
2021/06/15 05:40:27;;;;;;;4.07;2.38;;;14.70;99.90;;;;;;5050258;28;20073;-73
2021/06/15 05:42:52;;;;;;;7.60;2.60;;;14.80;99.90;;;;;;5061187;28;20452;-73
2021/06/15 05:45:18;;;;;;;4.82;2.75;;;15.00;99.90;;;;;;5051254;28;20124;-72
2021/06/15 05:47:44;;;;;;;5.68;2.60;;;15.10;99.90;;;;;;5050439;28;20080;-73
2021/06/15 05:50:12;;;;;;;3.92;2.28;;;15.30;99.90;;;;;;5052213;28;20073;-73
2021/06/15 05:52:38;;;;;;;3.75;2.45;;;15.30;99.90;;;;;;5061810;28;20612;-73
2021/06/15 05:55:04;;;;;;;3.65;2.50;;;15.40;99.90;;;;;;5066520;28;20128;-73
2021/06/15 05:57:31;;;;;;;4.72;2.28;;;15.50;99.90;;;;;;5060602;28;20541;-74
2021/06/15 05:59:57;;;;;;;6.43;2.42;;;15.70;99.90;;;;;;5051552;28;20576;-73
2021/06/15 06:02:24;;;;;;;6.95;2.38;;;15.80;99.90;;;;;;5056885;28;20077;-74
2021/06/15 06:09:59;;;;;;;8.15;2.13;;;16.20;99.90;;;;;;5050668;28;20183;-73
2021/06/15 06:12:25;;;;;;;8.77;2.33;;;16.30;99.90;;;;;;5056556;28;20090;-73
2021/06/15 06:14:51;;;;;;;5.30;2.00;;;16.50;99.90;;;;;;5053896;28;20239;-73
2021/06/15 06:17:17;;;;;;;3.97;2.10;;;16.80;99.90;;;;;;5055265;28;20081;-73
2021/06/15 06:19:44;;;;;;;7.60;1.85;;;16.90;99.90;;;;;;5065333;28;20502;-72
2021/06/15 06:22:10;;;;;;;5.55;1.92;;;16.90;99.90;;;;;;5063067;28;20134;-73
2021/06/15 06:24:35;;;;;;;7.10;2.20;;;17.00;99.90;;;;;;5061137;28;20096;-73
2021/06/15 06:27:01;;;;;;;7.30;2.55;;;17.20;99.90;;;;;;5049940;28;20070;-73
2021/06/15 06:29:27;;;;;;;9.57;2.50;;;17.20;99.90;;;;;;5050613;28;20088;-73
2021/06/15 06:31:52;;;;;;;9.43;2.90;;;17.40;99.90;;;;;;5052599;28;20069;-73
2021/06/15 06:34:18;;;;;;;7.07;2.75;;;17.50;99.90;;;;;;5052744;28;20561;-72
2021/06/15 06:36:44;;;;;;;4.55;2.25;;;17.70;99.90;;;;;;5049123;28;20080;-73
2021/06/15 06:39:10;;;;;;;3.55;1.80;;;17.90;99.90;;;;;;5049546;28;20074;-72
2021/06/15 06:41:36;;;;;;;4.20;2.03;;;17.90;99.90;;;;;;5050833;28;20091;-72
2021/06/15 06:44:02;;;;;;;3.50;2.10;;;17.90;99.90;;;;;;5050210;28;20140;-72
2021/06/15 06:46:28;;;;;;;5.97;1.88;;;18.00;99.90;;;;;;5050392;28;20094;-72
2021/06/15 06:48:54;;;;;;;3.80;2.03;;;18.00;99.90;;;;;;5050869;28;20720;-72
2021/06/15 06:51:19;;;;;;;4.88;2.67;;;18.00;99.90;;;;;;5057545;28;20085;-72
2021/06/15 06:53:46;;;;;;;2.90;2.05;;;18.20;99.90;;;;;;5053576;28;20157;-73
2021/06/15 06:56:11;;;;;;;4.75;2.20;;;18.40;99.90;;;;;;5051998;28;20097;-74
2021/06/15 06:58:37;;;;;;;4.75;2.67;;;18.40;99.90;;;;;;5050905;28;20066;-74
2021/06/15 07:01:04;;;;;;;4.10;2.00;;;18.80;99.90;;;;;;5056425;28;20077;-73
2021/06/15 07:03:30;;;;;;;2.92;2.08;;;19.00;99.90;;;;;;5056116;28;20093;-73
2021/06/15 07:05:55;;;;;;;4.93;2.20;;;19.20;99.90;;;;;;5048642;28;20127;-71
2021/06/15 07:08:21;;;;;;;6.25;2.20;;;19.30;99.90;;;;;;5054572;28;20109;-71
2021/06/15 07:10:47;;;;;;;4.38;1.95;;;19.20;99.90;;;;;;5050155;28;20176;-74
2021/06/15 07:13:12;;;;;;;3.47;1.98;;;19.40;99.90;;;;;;5053661;28;20080;-74
2021/06/15 07:15:38;;;;;;;2.97;2.20;;;19.40;99.90;;;;;;5052664;28;20100;-74
2021/06/15 07:18:04;;;;;;;7.63;2.15;;;19.50;99.90;;;;;;5052498;28;20085;-74
2021/06/15 07:20:29;;;;;;;2.80;1.63;;;19.40;99.90;;;;;;5048480;28;20793;-73
2021/06/15 07:22:55;;;;;;;3.78;2.33;;;19.60;99.90;;;;;;5052570;28;20081;-73
2021/06/15 07:25:21;;;;;;;4.35;2.03;;;19.70;99.90;;;;;;5056543;28;20096;-73
2021/06/15 07:27:47;;;;;;;4.15;1.58;;;19.60;99.90;;;;;;5054164;28;20069;-74
2021/06/15 07:30:13;;;;;;;2.85;1.88;;;19.60;99.90;;;;;;5051283;28;20077;-73
2021/06/15 07:32:39;;;;;;;3.33;1.85;;;19.80;99.90;;;;;;5051081;28;20070;-74
2021/06/15 07:35:05;;;;;;;3.72;1.90;;;20.20;99.90;;;;;;5048745;28;20151;-72
2021/06/15 07:37:31;;;;;;;4.32;1.90;;;20.30;99.90;;;;;;5056996;28;20560;-72
2021/06/15 07:39:57;;;;;;;3.67;1.88;;;20.20;99.90;;;;;;5066266;28;20081;-72
2021/06/15 07:42:25;;;;;;;2.92;2.10;;;20.20;99.90;;;;;;5064161;28;21001;-73
2021/06/15 07:44:51;;;;;;;2.40;1.60;;;20.40;99.90;;;;;;5051424;28;20465;-73
2021/06/15 07:47:17;;;;;;;4.97;2.00;;;20.80;99.90;;;;;;5047718;28;20077;-73
2021/06/15 07:49:42;;;;;;;3.05;1.75;;;21.00;99.90;;;;;;5048439;28;20143;-73
2021/06/15 07:52:08;;;;;;;4.15;2.00;;;21.00;99.90;;;;;;5048858;28;20069;-73
2021/06/15 07:54:34;;;;;;;3.03;2.03;;;20.80;99.90;;;;;;5060668;28;20142;-73
2021/06/15 07:57:00;;;;;;;4.65;1.95;;;20.60;99.90;;;;;;5048128;28;20084;-73
2021/06/15 07:59:25;;;;;;;4.93;2.33;;;20.50;99.90;;;;;;5050838;28;20121;-73
2021/06/15 08:01:51;;;;;;;3.63;2.40;;;20.70;99.90;;;;;;5057886;28;20081;-74
2021/06/15 08:04:17;;;;;;;5.07;2.15;;;20.70;99.90;;;;;;5053012;28;20100;-73
2021/06/15 08:06:43;;;;;;;3.92;2.45;;;21.00;99.90;;;;;;5062942;28;20144;-73
2021/06/15 08:09:09;;;;;;;3.83;1.80;;;21.00;99.90;;;;;;5049185;28;20406;-73
2021/06/15 08:11:35;;;;;;;6.60;2.20;;;20.90;99.90;;;;;;5055222;28;20070;-73
2021/06/15 08:14:00;;;;;;;4.95;2.08;;;21.10;99.90;;;;;;5049138;28;20137;-74
2021/06/15 08:16:26;;;;;;;5.68;2.10;;;21.10;99.50;;;;;;5050790;28;20077;-73
2021/06/15 08:18:51;;;;;;;3.17;1.98;;;21.40;99.90;;;;;;5051284;28;20084;-73
2021/06/15 08:21:17;;;;;;;2.38;1.17;;;21.30;99.00;;;;;;5046703;28;20591;-74
2021/06/15 08:23:43;;;;;;;5.43;1.33;;;21.40;93.90;;;;;;5057325;28;20622;-73
2021/06/15 08:26:09;;;;;;;3.65;1.40;;;21.40;94.00;;;;;;5057516;28;20239;-73
2021/06/15 08:28:34;;;;;;;6.15;2.65;;;21.70;94.80;;;;;;5048985;28;20135;-73
2021/06/15 08:31:00;;;;;;;3.00;1.60;;;21.60;95.50;;;;;;5048554;28;20066;-73
2021/06/15 08:33:26;;;;;;;1.83;1.33;;;22.30;97.30;;;;;;5052653;28;20073;-73
2021/06/15 08:35:52;;;;;;;2.63;1.52;;;22.10;95.00;;;;;;5044078;28;20098;-72
2021/06/15 08:38:19;;;;;;;3.92;1.90;;;22.00;93.70;;;;;;5048885;28;20504;-73
2021/06/15 08:40:50;;;;;;;5.07;2.05;;;21.90;93.90;;;;;;5053193;28;20108;-72
2021/06/15 08:43:17;;;;;;;5.50;1.80;;;22.50;97.40;;;;;;5055764;28;20126;-73
2021/06/15 08:45:43;;;;;;;2.10;1.40;;;22.40;95.50;;;;;;5062353;28;20710;-73
2021/06/15 08:48:10;;;;;;;4.45;1.63;;;22.30;95.40;;;;;;5049916;28;20069;-73
2021/06/15 08:50:36;;;;;;;3.28;1.67;;;22.40;94.60;;;;;;5055580;28;20094;-73
2021/06/15 08:53:02;;;;;;;3.85;2.15;;;22.50;94.70;;;;;;5053421;28;20073;-73
2021/06/15 08:55:31;;;;;;;5.55;1.73;;;22.30;95.50;;;;;;5054206;28;20132;-73
2021/06/15 08:58:21;;;;;;;2.85;1.58;;;22.60;96.90;;;;;;5061415;28;20081;-74
2021/06/15 09:00:47;;;;;;;5.03;1.73;;;22.80;97.30;;;;;;5061771;28;20099;-73
2021/06/15 09:03:14;;;;;;;4.57;1.60;;;22.60;95.60;;;;;;5061964;28;20081;-72
2021/06/15 09:05:41;;;;;;;4.75;2.03;;;22.40;95.40;;;;;;5054313;28;20483;-73
2021/06/15 09:08:08;;;;;;;2.47;1.58;;;22.30;95.90;;;;;;5050679;28;20587;-73
2021/06/15 09:10:45;;;;;;;6.70;2.50;;;22.50;96.30;;;;;;5063924;28;20084;-74
2021/06/15 09:13:38;;;;;;;5.28;1.90;;;22.50;96.20;;;;;;5057095;28;20073;-74
2021/06/15 09:16:25;;;;;;;5.72;2.20;;;22.40;96.20;;;;;;5070664;28;20678;-73
2021/06/15 09:18:55;;;;;;;5.50;2.00;;;22.40;95.70;;;;;;5064090;28;20074;-73
2021/06/15 09:21:30;;;;;;;4.63;2.40;;;22.40;96.30;;;;;;5055442;28;20607;-73
2021/06/15 09:24:15;;;;;;;2.92;2.03;;;22.50;96.30;;;;;;5059152;28;20081;-73
2021/06/15 09:27:13;;;;;;;3.90;1.83;;;22.60;96.00;;;;;;5052935;28;20078;-73
2021/06/15 09:29:53;;;;;;;4.25;1.98;;;22.80;96.50;;;;;;5037419;28;20097;-74
2021/06/15 09:32:35;;;;;;;4.53;2.20;;;22.60;95.90;;;;;;5052232;28;20189;-73
2021/06/15 09:35:02;;;;;;;4.15;1.90;;;22.50;95.50;;;;;;5048869;28;20189;-74
2021/06/15 09:37:36;;;;;;;2.15;1.70;;;22.50;95.70;;;;;;5050118;28;20699;-73
2021/06/15 09:40:10;;;;;;;7.55;2.67;;;22.60;95.70;;;;;;5051728;28;20065;-73
2021/06/15 09:42:47;;;;;;;;;;;22.70;95.90;;;;;;5056883;28;20100;-74
2021/06/15 09:45:42;;;;;;;4.38;2.40;;;22.80;95.10;;;;;;5061194;28;20016;-74
2021/06/15 09:48:29;;;;;;;3.15;2.00;;;22.80;94.10;;;;;;5052834;28;20081;-73
2021/06/15 09:51:00;;;;;;;6.75;1.80;;;23.20;95.50;;;;;;5055261;28;20100;-75
2021/06/15 09:53:28;;;;;;;5.47;2.00;;;23.30;95.70;;;;;;5066250;28;20122;-73
2021/06/15 09:55:56;;;;;;;4.88;2.08;;;23.20;94.10;;;;;;5069124;28;20120;-73
2021/06/15 09:58:45;;;;;;;3.55;1.95;;;23.10;93.40;;;;;;5062485;28;20109;-74
2021/06/15 10:01:44;;;;;;;3.80;1.70;;;23.30;92.80;;;;;;5066498;28;20155;-73
2021/06/15 10:04:20;;;;;;;4.95;2.30;;;23.30;93.60;;;;;;5063716;28;20127;-74
2021/06/15 10:06:47;;;;;;;4.88;1.90;;;23.60;94.90;;;;;;5050451;28;20065;-73
2021/06/15 10:09:22;;;;;;;4.22;1.65;;;23.80;94.10;;;;;;5050762;28;20069;-73
2021/06/15 10:11:48;;;;;;;4.32;2.55;;;23.80;94.30;;;;;;5059573;28;20068;-73
2021/06/15 10:14:13;;;;;;;4.13;1.80;;;23.60;91.90;;;;;;5055918;28;20131;-73
2021/06/15 10:16:40;;;;;;;4.30;1.95;;;23.50;92.40;;;;;;5049933;28;20073;-74
2021/06/15 10:19:06;;;;;;;3.53;1.88;;;23.40;91.80;;;;;;5061708;28;20097;-74
2021/06/15 10:21:34;;;;;;;3.50;2.05;;;23.30;92.20;;;;;;5061072;28;20176;-74
2021/06/15 10:24:01;;;;;;;7.65;2.13;;;23.60;92.50;;;;;;5058152;28;20168;-73
2021/06/15 10:26:27;;;;;;;4.85;1.95;;;23.60;92.10;;;;;;5050533;28;20127;-73
2021/06/15 10:28:53;;;;;;;4.85;2.05;;;23.70;92.00;;;;;;5062716;28;20092;-73
2021/06/15 10:31:30;;;;;;;3.80;1.80;;;23.80;92.30;;;;;;5061044;28;20084;-74
2021/06/15 10:33:56;;;;;;;4.72;1.88;;;24.20;93.50;;;;;;5062328;28;20069;-74
2021/06/15 10:36:40;;;;;;;2.72;1.95;;;24.10;91.70;;;;;;5056751;28;20074;-73
2021/06/15 10:39:09;;;;;;;5.05;2.30;;;23.80;90.90;;;;;;5063050;28;20073;-73
2021/06/15 10:41:35;;;;;;;4.10;2.13;;;23.70;90.80;;;;;;5054918;28;20074;-73
2021/06/15 10:44:01;;;;;;;3.92;2.03;;;23.80;91.20;;;;;;5052163;28;20088;-74
2021/06/15 10:46:34;;;;;;;2.00;1.75;;;23.70;90.80;;;;;;5048061;28;20072;-74
2021/06/15 10:49:20;;;;;;;4.50;1.65;;;23.70;91.60;;;;;;5061585;28;20160;-74
2021/06/15 10:51:54;;;;;;;4.47;1.85;;;23.80;91.10;;;;;;5049906;28;20112;-73
2021/06/15 10:54:41;;;;;;;;;;;23.70;90.40;;;;;;5054666;28;20096;-74
2021/06/15 10:57:23;;;;;;;4.30;2.08;;;23.80;91.50;;;;;;5062207;28;19967;-73
2021/06/15 11:00:05;;;;;;;2.88;1.85;;;23.80;90.90;;;;;;5050823;28;20096;-73
2021/06/15 11:02:32;;;;;;;4.05;2.22;;;23.90;91.00;;;;;;5050311;28;20073;-73
2021/06/15 11:04:59;;;;;;;4.65;1.95;;;23.90;90.90;;;;;;5049437;28;20097;-73
2021/06/15 11:07:43;;;;;;;5.13;2.00;;;24.00;90.10;;;;;;5047930;28;20790;-74
2021/06/15 11:10:08;;;;;;;4.93;2.77;;;24.10;91.10;;;;;;5070015;28;20107;-74
2021/06/15 11:12:47;;;;;;;2.90;1.92;;;24.10;90.90;;;;;;5048342;28;20092;-73
2021/06/15 11:15:21;;;;;;;3.42;1.58;;;24.00;90.30;;;;;;5051277;28;20195;-73
2021/06/15 11:17:53;;;;;;;5.75;2.00;;;24.10;89.40;;;;;;5056433;28;20159;-74
2021/06/15 11:20:27;;;;;;;4.18;1.90;;;24.20;91.00;;;;;;5049041;28;20127;-73
2021/06/15 11:23:16;;;;;;;5.55;2.05;;;24.20;89.10;;;;;;5049536;28;20088;-73
2021/06/15 11:26:00;;;;;;;3.42;1.88;;;24.20;88.90;;;;;;5057803;28;20109;-74
2021/06/15 11:28:36;;;;;;;2.90;1.77;;;24.20;86.50;;;;;;5049383;28;20670;-74
2021/06/15 11:31:20;;;;;;;1.80;1.65;;;24.10;89.50;;;;;;5050174;28;20160;-74
2021/06/15 11:34:01;;;;;;;3.70;1.80;;;24.30;89.40;;;;;;5052762;28;20104;-74
2021/06/15 11:36:41;;;;;;;4.63;1.70;;;24.60;88.20;;;;;;5047057;28;20087;-74
2021/06/15 11:39:27;;;;;;;2.90;1.60;;;24.40;87.00;;;;;;5048254;28;20077;-73
2021/06/15 11:42:08;;;;;;;3.88;2.20;;;24.30;85.40;;;;;;5055977;28;20073;-73
2021/06/15 11:44:59;;;;;;;3.55;1.48;;;24.60;91.80;;;;;;5048784;28;20168;-73
2021/06/15 11:47:59;;;;;;;2.40;1.40;;;24.60;85.60;;;;;;5048216;28;20070;-74
2021/06/15 11:50:36;;;;;;;2.47;1.50;;;24.80;88.10;;;;;;5049543;28;20085;-74
2021/06/15 11:53:09;;;;;;;4.20;1.40;;;25.00;88.20;;;;;;5051952;28;20073;-74
2021/06/15 11:55:40;;;;;;;3.58;1.42;;;24.90;88.80;;;;;;5063197;28;20092;-73
2021/06/15 11:58:09;;;;;;;3.30;1.88;;;24.90;90.30;;;;;;5051949;28;20130;-73
2021/06/15 12:00:38;;;;;;;4.72;1.90;;;24.80;87.80;;;;;;5054769;28;20084;-75
2021/06/15 12:03:06;;;;;;;4.78;1.83;;;24.90;86.60;;;;;;5053495;28;20092;-76
2021/06/15 12:05:33;;;;;;;2.80;1.15;;;24.60;83.10;;;;;;5067745;28;20149;-73
2021/06/15 12:07:58;;;;;;;2.95;1.45;;;24.60;83.50;;;;;;5068787;28;20069;-72
2021/06/15 12:10:25;;;;;;;3.45;1.20;;;24.60;82.50;;;;;;5063246;28;20414;-73
2021/06/15 12:13:21;;;;;;;6.85;1.67;;;24.60;84.50;;;;;;5058092;28;20072;-73
2021/06/15 12:16:09;;;;;;;1.88;1.25;;;24.70;85.90;;;;;;5049882;28;20728;-73
2021/06/15 12:18:56;;;;;;;1.80;1.33;;;24.80;87.10;;;;;;5064282;28;20087;-73
2021/06/15 12:21:24;;;;;;;2.13;1.33;;;24.70;83.50;;;;;;5059835;28;20083;-73
2021/06/15 12:23:53;;;;;;;2.45;1.50;;;24.80;87.40;;;;;;5067508;28;20168;-73
2021/06/15 12:26:20;;;;;;;3.67;1.50;;;24.90;84.80;;;;;;5056447;28;20087;-73
2021/06/15 12:29:02;;;;;;;3.72;1.58;;;24.80;84.60;;;;;;5062739;28;20069;-73
2021/06/15 12:31:28;;;;;;;2.55;1.48;;;24.90;85.30;;;;;;5064616;28;20069;-73
2021/06/15 12:34:08;;;;;;;3.03;1.40;;;24.70;82.90;;;;;;5067151;28;20073;-78
2021/06/15 12:36:37;;;;;;;1.67;1.10;;;24.80;82.90;;;;;;5069103;28;20073;-76
2021/06/15 12:39:16;;;;;;;1.85;1.13;;;24.70;82.40;;;;;;5048857;28;20472;-82
2021/06/15 12:41:46;;;;;;;3.92;1.30;;;24.60;80.20;;;;;;5089012;28;20134;-72
2021/06/15 12:44:12;;;;;;;2.15;1.52;;;24.70;81.80;;;;;;5070699;28;20093;-72
2021/06/15 12:46:40;;;;;;;4.90;1.50;;;24.80;83.50;;;;;;5068395;28;20079;-73
2021/06/15 12:49:17;;;;;;;2.92;1.60;;;24.60;84.00;;;;;;5065392;28;20606;-72
2021/06/15 12:51:44;;;;;;;4.18;1.58;;;24.80;86.20;;;;;;5062427;28;20123;-73
2021/06/15 12:54:38;;;;;;;3.78;1.40;;;24.70;82.20;;;;;;5065613;28;20451;-74
2021/06/15 12:57:10;;;;;;;4.22;2.13;;;24.80;84.00;;;;;;5058225;28;20097;-74
2021/06/15 12:59:41;;;;;;;1.80;1.00;;;24.90;81.50;;;;;;5068247;28;20084;-72
2021/06/15 13:02:14;;;;;;;1.55;1.00;;;24.70;80.60;;;;;;5067209;28;20092;-73
2021/06/15 13:04:55;;;;;;;2.50;1.20;;;24.80;79.90;;;;;;5064243;28;20570;-73
2021/06/15 13:07:22;;;;;;;2.40;0.90;;;24.80;79.10;;;;;;5063025;28;20073;-72
2021/06/15 13:09:48;;;;;;;1.65;1.00;;;24.80;80.60;;;;;;5066872;28;20069;-73
2021/06/15 13:12:20;;;;;;;1.77;1.08;;;24.80;80.20;;;;;;5063983;28;20065;-72